createdAt,value
2018-09-30T00:00:44.542Z,55.24
2018-09-30T00:03:14.389Z,53.38
2018-09-30T00:05:44.226Z,54.54
2018-09-30T00:08:14.140Z,54.48
2018-09-30T00:10:43.832Z,54.62
2018-09-30T00:13:13.635Z,54.60
2018-09-30T00:15:43.489Z,54.13
2018-09-30T00:18:13.261Z,55.28
2018-09-30T00:20:44.123Z,55.66
2018-09-30T00:23:14.237Z,60.59
2018-09-30T00:25:49.529Z,57.82
2018-09-30T00:28:19.398Z,57.30
2018-09-30T00:30:49.304Z,58.63
2018-09-30T00:33:19.531Z,59.61
2018-09-30T00:35:49.345Z,57.62
2018-09-30T00:38:19.203Z,59.92
2018-09-30T00:40:49.027Z,63.24
2018-09-30T00:43:18.849Z,58.18
2018-09-30T00:45:48.714Z,57.81
2018-09-30T00:48:18.611Z,56.87
2018-09-30T00:50:48.524Z,60.01
2018-09-30T00:53:18.266Z,57.43
2018-09-30T00:55:48.160Z,57.40
2018-09-30T00:58:18.021Z,57.81
2018-09-30T01:00:47.945Z,60.23
2018-09-30T01:03:17.841Z,60.28
2018-09-30T01:05:48.011Z,60.77
2018-09-30T01:08:17.903Z,58.66
2018-09-30T01:10:47.694Z,58.99
2018-09-30T01:13:17.449Z,60.05
2018-09-30T01:15:47.204Z,57.70
2018-09-30T01:18:17.008Z,55.99
2018-09-30T01:20:46.813Z,55.90
2018-09-30T01:23:16.981Z,55.63
2018-09-30T01:25:46.781Z,55.30
2018-09-30T01:28:16.547Z,56.44
2018-09-30T01:30:46.444Z,56.38
2018-09-30T01:33:16.161Z,58.95
2018-09-30T01:35:46.022Z,58.96
2018-09-30T01:38:15.650Z,57.45
2018-09-30T01:40:45.376Z,59.09
2018-09-30T01:43:15.159Z,58.60
2018-09-30T01:45:45.000Z,58.22
2018-09-30T01:48:14.803Z,57.83
2018-09-30T01:50:44.696Z,59.96
2018-09-30T01:53:14.568Z,59.07
2018-09-30T01:55:44.393Z,58.81
2018-09-30T01:58:14.121Z,61.72
2018-09-30T02:00:43.780Z,58.70
2018-09-30T02:03:13.521Z,59.85
2018-09-30T02:05:43.368Z,58.44
2018-09-30T02:08:13.450Z,60.39
2018-09-30T02:10:43.322Z,61.40
2018-09-30T02:13:13.135Z,60.77
2018-09-30T02:15:43.887Z,61.47
2018-09-30T02:18:13.770Z,60.56
2018-09-30T02:20:43.608Z,59.77
2018-09-30T02:23:13.439Z,60.24
2018-09-30T02:25:43.466Z,62.58
2018-09-30T02:28:13.344Z,60.80
2018-09-30T02:30:43.082Z,59.54
2018-09-30T02:33:12.889Z,59.01
2018-09-30T02:35:42.714Z,59.30
2018-09-30T02:38:12.623Z,59.07
2018-09-30T02:40:42.561Z,58.57
2018-09-30T02:43:12.412Z,58.74
2018-09-30T02:45:42.264Z,59.61
2018-09-30T02:48:12.026Z,59.30
2018-09-30T02:50:41.881Z,59.75
2018-09-30T02:53:11.734Z,59.70
2018-09-30T02:55:41.541Z,61.52
2018-09-30T02:58:11.422Z,61.78
2018-09-30T03:00:41.144Z,59.77
2018-09-30T03:03:11.152Z,60.88
2018-09-30T03:05:40.896Z,61.33
2018-09-30T03:08:15.832Z,60.66
2018-09-30T03:10:45.703Z,59.95
2018-09-30T03:13:15.577Z,61.85
2018-09-30T03:15:45.412Z,64.05
2018-09-30T03:18:15.330Z,64.43
2018-09-30T03:20:45.089Z,62.87
2018-09-30T03:23:14.991Z,61.75
2018-09-30T03:25:44.833Z,62.32
2018-09-30T03:28:15.040Z,61.89
2018-09-30T03:30:44.849Z,65.51
2018-09-30T03:33:14.610Z,63.65
2018-09-30T03:35:44.541Z,62.53
2018-09-30T03:38:14.319Z,61.66
2018-09-30T03:40:44.184Z,63.99
2018-09-30T03:43:14.035Z,64.22
2018-09-30T03:45:43.835Z,63.11
2018-09-30T03:48:13.651Z,63.47
2018-09-30T03:50:43.528Z,62.09
2018-09-30T03:53:13.218Z,61.76
2018-09-30T03:55:43.050Z,61.87
2018-09-30T03:58:12.973Z,61.41
2018-09-30T04:00:42.870Z,63.70
2018-09-30T04:03:12.872Z,60.96
2018-09-30T04:05:42.669Z,62.49
2018-09-30T04:08:12.591Z,63.23
2018-09-30T04:10:42.568Z,63.46
2018-09-30T04:13:12.512Z,64.30
2018-09-30T04:15:42.484Z,63.06
2018-09-30T04:18:12.379Z,61.79
2018-09-30T04:20:42.145Z,61.23
2018-09-30T04:23:12.005Z,61.45
2018-09-30T04:25:41.891Z,61.97
2018-09-30T04:28:11.823Z,62.22
2018-09-30T04:30:41.741Z,62.27
2018-09-30T04:33:11.631Z,62.22
2018-09-30T04:35:41.443Z,62.58
2018-09-30T04:38:11.447Z,62.25
2018-09-30T04:40:41.318Z,63.18
2018-09-30T04:43:10.942Z,62.41
2018-09-30T04:45:40.638Z,63.44
2018-09-30T04:48:10.460Z,62.15
2018-09-30T04:50:40.243Z,62.39
2018-09-30T04:53:14.096Z,62.66
2018-09-30T04:55:44.970Z,64.72
2018-09-30T04:58:14.837Z,65.06
2018-09-30T05:00:44.759Z,65.48
2018-09-30T05:03:14.695Z,64.67
2018-09-30T05:05:44.512Z,65.56
2018-09-30T05:08:14.388Z,62.96
2018-09-30T05:10:44.254Z,64.85
2018-09-30T05:13:14.107Z,64.53
2018-09-30T05:15:43.986Z,65.81
2018-09-30T05:18:13.945Z,66.26
2018-09-30T05:20:43.783Z,67.95
2018-09-30T05:23:13.628Z,67.05
2018-09-30T05:25:43.579Z,66.37
2018-09-30T05:28:13.507Z,67.48
2018-09-30T05:30:43.367Z,66.86
2018-09-30T05:33:13.689Z,67.00
2018-09-30T05:35:43.622Z,64.02
2018-09-30T05:38:14.544Z,65.15
2018-09-30T05:40:44.322Z,64.64
2018-09-30T05:43:14.147Z,65.09
2018-09-30T05:45:45.590Z,65.36
2018-09-30T05:48:15.471Z,62.30
2018-09-30T05:50:45.501Z,62.81
2018-09-30T05:53:15.274Z,62.35
2018-09-30T05:55:45.060Z,63.71
2018-09-30T05:58:14.942Z,62.64
2018-09-30T06:00:44.723Z,64.23
2018-09-30T06:03:14.649Z,63.49
2018-09-30T06:05:44.473Z,61.29
2018-09-30T06:08:14.288Z,62.30
2018-09-30T06:10:44.181Z,62.89
2018-09-30T06:13:14.021Z,62.44
2018-09-30T06:15:43.901Z,61.56
2018-09-30T06:18:13.713Z,60.88
2018-09-30T06:20:43.451Z,60.89
2018-09-30T06:23:13.460Z,61.30
2018-09-30T06:25:43.374Z,60.78
2018-09-30T06:28:13.261Z,61.70
2018-09-30T06:30:43.273Z,62.42
2018-09-30T06:33:13.193Z,61.55
2018-09-30T06:35:43.598Z,61.62
2018-09-30T06:38:13.572Z,61.90
2018-09-30T06:40:43.441Z,61.34
2018-09-30T06:43:13.360Z,59.69
2018-09-30T06:45:43.223Z,60.60
2018-09-30T06:48:13.129Z,59.37
2018-09-30T06:50:42.849Z,59.46
2018-09-30T06:53:12.597Z,59.49
2018-09-30T06:55:42.356Z,59.10
2018-09-30T06:58:12.191Z,59.06
2018-09-30T07:00:41.978Z,58.17
2018-09-30T07:03:11.743Z,57.74
2018-09-30T07:05:41.614Z,57.89
2018-09-30T07:08:11.378Z,59.17
2018-09-30T07:10:41.302Z,57.80
2018-09-30T07:13:11.197Z,58.20
2018-09-30T07:15:41.120Z,57.95
2018-09-30T07:18:10.995Z,58.39
2018-09-30T07:20:40.706Z,58.12
2018-09-30T07:23:10.593Z,57.65
2018-09-30T07:25:40.493Z,56.54
2018-09-30T07:28:10.352Z,53.46
2018-09-30T07:30:40.195Z,51.98
2018-09-30T07:33:09.943Z,50.75
2018-09-30T07:35:39.768Z,49.75
2018-09-30T07:38:10.093Z,49.01
2018-09-30T07:40:39.888Z,47.95
2018-09-30T07:43:09.842Z,47.71
2018-09-30T07:45:39.656Z,46.18
2018-09-30T07:48:09.587Z,45.06
2018-09-30T07:50:39.645Z,44.31
2018-09-30T07:53:09.904Z,45.13
2018-09-30T07:55:39.693Z,45.33
2018-09-30T07:58:09.486Z,44.45
2018-09-30T08:00:39.297Z,42.39
2018-09-30T08:03:08.971Z,41.20
2018-09-30T08:05:38.864Z,42.90
2018-09-30T08:08:08.611Z,41.78
2018-09-30T08:10:38.380Z,39.70
2018-09-30T08:13:08.307Z,41.25
2018-09-30T08:15:38.209Z,41.58
2018-09-30T08:18:08.169Z,41.12
2018-09-30T08:20:37.857Z,39.12
2018-09-30T08:23:07.672Z,41.21
2018-09-30T08:25:37.279Z,39.47
2018-09-30T08:28:07.040Z,38.18
2018-09-30T08:30:36.971Z,39.18
2018-09-30T08:33:06.923Z,38.82
2018-09-30T08:35:36.756Z,39.62
2018-09-30T08:38:11.583Z,44.28
2018-09-30T08:40:46.595Z,42.28
2018-09-30T08:43:16.556Z,42.68
2018-09-30T08:45:47.026Z,39.96
2018-09-30T08:48:16.942Z,39.77
2018-09-30T08:50:46.644Z,44.30
2018-09-30T08:53:16.381Z,40.07
2018-09-30T08:55:46.213Z,39.93
2018-09-30T08:58:16.067Z,39.86
2018-09-30T09:00:46.144Z,39.90
2018-09-30T09:03:15.945Z,40.30
2018-09-30T09:05:45.810Z,40.47
2018-09-30T09:08:15.504Z,42.81
2018-09-30T09:10:45.418Z,42.23
2018-09-30T09:13:15.206Z,44.85
2018-09-30T09:15:45.357Z,45.82
2018-09-30T09:18:15.549Z,45.42
2018-09-30T09:20:45.441Z,45.52
2018-09-30T09:23:15.258Z,46.07
2018-09-30T09:25:45.592Z,46.56
2018-09-30T09:28:15.339Z,46.98
2018-09-30T09:30:45.215Z,45.97
2018-09-30T09:33:15.058Z,47.00
2018-09-30T09:35:45.020Z,46.54
2018-09-30T09:38:14.858Z,48.07
2018-09-30T09:40:44.640Z,51.22
2018-09-30T09:43:14.716Z,51.28
2018-09-30T09:45:44.888Z,53.87
2018-09-30T09:48:14.740Z,54.79
2018-09-30T09:50:44.483Z,54.17
2018-09-30T09:53:14.245Z,55.46
2018-09-30T09:55:44.259Z,57.27
2018-09-30T09:58:14.059Z,55.49
2018-09-30T10:00:43.956Z,55.57
2018-09-30T10:03:15.244Z,55.34
2018-09-30T10:05:45.192Z,55.90
2018-09-30T10:08:15.133Z,55.08
2018-09-30T10:10:44.905Z,54.16
2018-09-30T10:13:14.739Z,54.62
2018-09-30T10:15:44.547Z,54.32
2018-09-30T10:18:14.433Z,54.19
2018-09-30T10:20:44.237Z,55.69
2018-09-30T10:23:14.118Z,55.66
2018-09-30T10:25:43.928Z,54.83
2018-09-30T10:28:13.876Z,56.02
2018-09-30T10:30:43.781Z,55.34
2018-09-30T10:33:14.261Z,56.54
2018-09-30T10:35:43.944Z,54.87
2018-09-30T10:38:13.763Z,54.52
2018-09-30T10:40:43.592Z,55.44
2018-09-30T10:43:13.540Z,54.96
2018-09-30T10:45:43.347Z,54.72
2018-09-30T10:48:13.196Z,55.01
2018-09-30T10:50:43.117Z,56.65
2018-09-30T10:53:12.962Z,55.05
2018-09-30T10:55:42.778Z,55.65
2018-09-30T10:58:12.606Z,56.58
2018-09-30T11:00:42.458Z,56.40
2018-09-30T11:03:12.442Z,55.52
2018-09-30T11:05:42.363Z,55.72
2018-09-30T11:08:12.175Z,55.38
2018-09-30T11:10:42.009Z,57.23
2018-09-30T11:13:11.784Z,56.70
2018-09-30T11:15:41.772Z,56.03
2018-09-30T11:18:11.480Z,55.92
2018-09-30T11:20:41.215Z,55.70
2018-09-30T11:23:10.878Z,54.37
2018-09-30T11:25:40.667Z,55.43
2018-09-30T11:28:10.480Z,54.55
2018-09-30T11:30:40.305Z,55.30
2018-09-30T11:33:10.086Z,54.82
2018-09-30T11:35:39.850Z,56.03
2018-09-30T11:38:09.670Z,54.56
2018-09-30T11:40:39.450Z,55.21
2018-09-30T11:43:09.361Z,53.88
2018-09-30T11:45:39.076Z,54.90
2018-09-30T11:48:09.044Z,54.84
2018-09-30T11:50:38.990Z,53.30
2018-09-30T11:53:08.865Z,53.43
2018-09-30T11:55:38.713Z,53.59
2018-09-30T11:58:08.577Z,53.05
2018-09-30T12:00:38.489Z,53.27
2018-09-30T12:03:08.301Z,53.96
2018-09-30T12:05:38.134Z,54.24
2018-09-30T12:08:07.982Z,54.00
2018-09-30T12:10:37.812Z,54.29
2018-09-30T12:13:07.715Z,54.04
2018-09-30T12:15:37.448Z,53.93
2018-09-30T12:18:07.252Z,52.50
2018-09-30T12:20:37.084Z,52.87
2018-09-30T12:23:07.373Z,53.25
2018-09-30T12:25:37.342Z,52.45
2018-09-30T12:28:07.399Z,52.39
2018-09-30T12:30:37.237Z,51.39
2018-09-30T12:33:07.031Z,52.21
2018-09-30T12:35:36.733Z,52.24
2018-09-30T12:38:06.593Z,52.78
2018-09-30T12:40:37.471Z,52.50
2018-09-30T12:43:07.329Z,51.78
2018-09-30T12:45:37.253Z,53.30
2018-09-30T12:48:07.145Z,53.63
2018-09-30T12:50:37.338Z,52.66
2018-09-30T12:53:07.409Z,53.13
2018-09-30T12:55:37.190Z,53.84
2018-09-30T12:58:07.122Z,53.09
2018-09-30T13:00:37.081Z,52.35
2018-09-30T13:03:06.872Z,53.12
2018-09-30T13:05:36.689Z,52.33
2018-09-30T13:08:06.512Z,52.61
2018-09-30T13:10:36.475Z,53.04
2018-09-30T13:13:06.475Z,52.68
2018-09-30T13:15:36.333Z,53.46
2018-09-30T13:18:06.244Z,53.21
2018-09-30T13:20:36.071Z,52.00
2018-09-30T13:23:05.822Z,52.88
2018-09-30T13:25:35.688Z,52.99
2018-09-30T13:28:05.562Z,53.38
2018-09-30T13:30:35.385Z,53.31
2018-09-30T13:33:05.226Z,52.32
2018-09-30T13:35:35.159Z,52.71
2018-09-30T13:38:05.045Z,52.25
2018-09-30T13:40:34.928Z,52.51
2018-09-30T13:43:04.802Z,53.89
2018-09-30T13:45:34.594Z,52.99
2018-09-30T13:48:04.457Z,52.77
2018-09-30T13:50:34.334Z,52.75
2018-09-30T13:53:04.553Z,53.10
2018-09-30T13:55:34.451Z,53.01
2018-09-30T13:58:04.376Z,53.45
2018-09-30T14:00:34.143Z,51.75
2018-09-30T14:03:04.046Z,53.51
2018-09-30T14:05:33.766Z,53.12
2018-09-30T14:08:03.582Z,53.31
2018-09-30T14:10:33.382Z,53.14
2018-09-30T14:13:03.223Z,52.94
2018-09-30T14:15:32.934Z,53.30
2018-09-30T14:18:02.762Z,53.27
2018-09-30T14:20:32.636Z,53.27
2018-09-30T14:23:02.412Z,52.92
2018-09-30T14:25:32.212Z,53.50
2018-09-30T14:28:01.950Z,52.93
2018-09-30T14:30:31.845Z,53.84
2018-09-30T14:33:01.730Z,54.27
2018-09-30T14:35:31.530Z,53.82
2018-09-30T14:38:01.444Z,55.17
2018-09-30T14:40:31.226Z,53.47
2018-09-30T14:43:01.070Z,53.98
2018-09-30T14:45:30.798Z,54.40
2018-09-30T14:48:00.868Z,53.73
2018-09-30T14:50:30.750Z,54.50
2018-09-30T14:53:00.600Z,54.30
2018-09-30T14:55:30.736Z,55.03
2018-09-30T14:58:01.540Z,54.98
2018-09-30T15:00:31.390Z,54.71
2018-09-30T15:03:01.185Z,54.35
2018-09-30T15:05:31.641Z,53.86
2018-09-30T15:08:01.514Z,55.19
2018-09-30T15:10:31.313Z,54.48
2018-09-30T15:13:01.053Z,54.65
2018-09-30T15:15:30.981Z,54.94
2018-09-30T15:18:00.786Z,55.21
2018-09-30T15:20:30.634Z,55.37
2018-09-30T15:23:00.463Z,55.12
2018-09-30T15:25:30.195Z,54.76
2018-09-30T15:28:00.053Z,54.62
2018-09-30T15:30:29.938Z,53.89
2018-09-30T15:32:59.773Z,54.65
2018-09-30T15:35:29.604Z,54.57
2018-09-30T15:37:59.362Z,55.23
2018-09-30T15:40:29.006Z,54.28
2018-09-30T15:42:58.928Z,53.68
2018-09-30T15:45:28.845Z,54.66
2018-09-30T15:47:58.616Z,54.66
2018-09-30T15:50:28.472Z,53.93
2018-09-30T15:52:58.299Z,54.38
2018-09-30T15:55:28.147Z,53.95
2018-09-30T15:57:58.480Z,53.95
2018-09-30T16:00:28.400Z,54.17
2018-09-30T16:02:58.109Z,55.42
2018-09-30T16:05:27.835Z,54.83
2018-09-30T16:07:57.754Z,54.27
2018-09-30T16:10:27.746Z,54.05
2018-09-30T16:12:57.560Z,53.51
2018-09-30T16:15:27.476Z,53.63
2018-09-30T16:17:57.229Z,54.98
2018-09-30T16:20:26.903Z,55.94
2018-09-30T16:22:56.723Z,56.45
2018-09-30T16:25:26.603Z,56.41
2018-09-30T16:27:56.342Z,56.54
2018-09-30T16:30:26.233Z,54.77
2018-09-30T16:32:56.088Z,54.85
2018-09-30T16:35:25.977Z,55.78
2018-09-30T16:37:55.747Z,55.35
2018-09-30T16:40:25.524Z,54.84
2018-09-30T16:42:55.304Z,54.71
2018-09-30T16:45:25.133Z,55.34
2018-09-30T16:47:54.840Z,55.13
2018-09-30T16:50:24.754Z,54.94
2018-09-30T16:52:54.560Z,54.11
2018-09-30T16:55:24.436Z,54.86
2018-09-30T16:57:54.307Z,55.98
2018-09-30T17:00:24.322Z,55.86
2018-09-30T17:02:54.244Z,55.98
2018-09-30T17:05:24.108Z,56.58
2018-09-30T17:07:54.204Z,56.51
2018-09-30T17:10:24.082Z,55.77
2018-09-30T17:12:53.908Z,55.16
2018-09-30T17:15:23.602Z,54.80
2018-09-30T17:17:53.256Z,55.95
2018-09-30T17:20:23.078Z,55.84
2018-09-30T17:22:52.892Z,55.63
2018-09-30T17:25:22.526Z,55.38
2018-09-30T17:27:52.372Z,56.70
2018-09-30T17:30:22.200Z,55.37
2018-09-30T17:32:52.007Z,56.93
2018-09-30T17:35:21.941Z,56.75
2018-09-30T17:37:51.923Z,56.41
2018-09-30T17:40:21.711Z,56.64
2018-09-30T17:42:51.473Z,56.22
2018-09-30T17:45:21.285Z,57.40
2018-09-30T17:47:51.045Z,55.84
2018-09-30T17:50:20.970Z,56.11
2018-09-30T17:52:50.850Z,57.22
2018-09-30T17:55:20.646Z,56.67
2018-09-30T17:57:50.519Z,56.90
2018-09-30T18:00:20.282Z,57.18
2018-09-30T18:02:50.465Z,57.52
2018-09-30T18:05:20.265Z,57.00
2018-09-30T18:07:50.032Z,57.30
2018-09-30T18:10:19.921Z,57.65
2018-09-30T18:12:49.762Z,56.89
2018-09-30T18:15:19.544Z,56.26
2018-09-30T18:17:49.474Z,56.37
2018-09-30T18:20:19.446Z,56.30
2018-09-30T18:22:49.062Z,57.27
2018-09-30T18:25:18.831Z,57.64
2018-09-30T18:27:48.578Z,56.43
2018-09-30T18:30:18.229Z,57.42
2018-09-30T18:32:48.073Z,57.38
2018-09-30T18:35:17.837Z,57.49
2018-09-30T18:37:47.671Z,56.70
2018-09-30T18:40:17.652Z,58.55
2018-09-30T18:42:47.677Z,57.04
2018-09-30T18:45:17.340Z,57.52
2018-09-30T18:47:47.089Z,56.51
2018-09-30T18:50:16.718Z,57.06
2018-09-30T18:52:46.572Z,57.25
2018-09-30T18:55:16.706Z,56.07
2018-09-30T18:57:46.475Z,55.93
2018-09-30T19:00:16.309Z,56.61
2018-09-30T19:02:46.186Z,56.52
2018-09-30T19:05:15.974Z,56.22
2018-09-30T19:07:45.850Z,55.73
2018-09-30T19:10:15.733Z,56.65
2018-09-30T19:12:45.487Z,56.17
2018-09-30T19:15:15.481Z,55.24
2018-09-30T19:17:45.347Z,56.16
2018-09-30T19:20:15.258Z,55.84
2018-09-30T19:22:45.149Z,56.41
2018-09-30T19:25:15.085Z,55.83
2018-09-30T19:27:44.888Z,56.40
2018-09-30T19:30:14.775Z,56.50
2018-09-30T19:32:44.612Z,56.85
2018-09-30T19:35:14.456Z,57.84
2018-09-30T19:37:44.297Z,57.78
2018-09-30T19:40:14.123Z,58.27
2018-09-30T19:42:43.760Z,58.25
2018-09-30T19:45:13.555Z,57.62
2018-09-30T19:47:43.416Z,58.90
2018-09-30T19:50:13.436Z,57.84
2018-09-30T19:52:43.133Z,57.13
2018-09-30T19:55:12.915Z,57.10
2018-09-30T19:57:42.701Z,55.56
2018-09-30T20:00:12.619Z,56.32
2018-09-30T20:02:42.505Z,56.55
2018-09-30T20:05:12.278Z,56.62
2018-09-30T20:07:42.285Z,56.94
2018-09-30T20:10:12.004Z,56.30
2018-09-30T20:12:42.020Z,55.00
2018-09-30T20:15:11.921Z,55.51
2018-09-30T20:17:41.771Z,55.23
2018-09-30T20:20:11.637Z,54.53
2018-09-30T20:22:41.502Z,55.58
2018-09-30T20:25:11.269Z,54.70
2018-09-30T20:27:41.087Z,55.11
2018-09-30T20:30:10.481Z,55.32
2018-09-30T20:32:40.264Z,55.05
2018-09-30T20:35:10.117Z,56.19
2018-09-30T20:37:39.921Z,56.84
2018-09-30T20:40:09.799Z,56.61
2018-09-30T20:42:39.649Z,56.67
2018-09-30T20:45:08.933Z,56.09
2018-09-30T20:47:38.787Z,56.10
2018-09-30T20:50:09.005Z,56.41
2018-09-30T20:52:38.907Z,56.36
2018-09-30T20:55:08.765Z,55.12
2018-09-30T20:57:38.522Z,55.72
2018-09-30T21:00:08.499Z,56.46
2018-09-30T21:02:38.435Z,56.36
2018-09-30T21:05:47.804Z,56.59
2018-09-30T21:08:17.849Z,57.97
2018-09-30T21:10:47.709Z,57.74
2018-09-30T21:13:17.546Z,57.19
2018-09-30T21:15:47.478Z,56.82
2018-09-30T21:18:17.385Z,57.27
2018-09-30T21:20:47.240Z,58.38
2018-09-30T21:23:16.888Z,58.26
2018-09-30T21:25:46.782Z,58.61
2018-09-30T21:28:16.546Z,58.44
2018-09-30T21:30:46.798Z,58.25
2018-09-30T21:33:16.921Z,56.96
2018-09-30T21:35:46.951Z,57.36
2018-09-30T21:38:16.769Z,58.00
2018-09-30T21:40:46.575Z,58.30
2018-09-30T21:43:17.206Z,57.82
2018-09-30T21:45:46.973Z,58.92
2018-09-30T21:48:17.993Z,58.46
2018-09-30T21:50:47.759Z,58.52
2018-09-30T21:53:18.855Z,58.60
2018-09-30T21:55:48.655Z,58.81
2018-09-30T21:58:18.468Z,58.96
2018-09-30T22:00:53.318Z,59.27
2018-09-30T22:03:23.577Z,58.25
2018-09-30T22:05:53.725Z,58.84
2018-09-30T22:08:23.757Z,58.47
2018-09-30T22:10:53.626Z,57.48
2018-09-30T22:13:24.582Z,58.72
2018-09-30T22:15:54.358Z,58.74
2018-09-30T22:18:24.199Z,58.26
2018-09-30T22:20:54.008Z,59.04
2018-09-30T22:23:23.777Z,58.36
2018-09-30T22:25:53.589Z,58.85
2018-09-30T22:28:23.465Z,58.77
2018-09-30T22:30:53.254Z,58.48
2018-09-30T22:33:23.011Z,59.42
2018-09-30T22:35:52.842Z,59.95
2018-09-30T22:38:22.539Z,59.46
2018-09-30T22:40:52.371Z,59.57
2018-09-30T22:43:22.181Z,60.16
2018-09-30T22:45:51.924Z,58.45
2018-09-30T22:48:21.781Z,59.59
2018-09-30T22:50:51.555Z,61.30
2018-09-30T22:53:21.530Z,60.64
2018-09-30T22:55:51.303Z,59.95
2018-09-30T22:58:21.041Z,60.36
2018-09-30T23:00:50.976Z,60.47
2018-09-30T23:03:20.595Z,60.27
2018-09-30T23:05:50.410Z,60.58
2018-09-30T23:08:20.252Z,58.80
2018-09-30T23:10:50.248Z,58.02
2018-09-30T23:13:20.525Z,58.81
2018-09-30T23:15:50.303Z,58.03
2018-09-30T23:18:20.057Z,56.93
2018-09-30T23:20:49.929Z,57.20
2018-09-30T23:23:19.694Z,57.93
2018-09-30T23:25:49.493Z,57.50
2018-09-30T23:28:19.229Z,57.88
2018-09-30T23:30:49.041Z,58.23
2018-09-30T23:33:19.010Z,57.86
2018-09-30T23:35:48.817Z,57.25
2018-09-30T23:38:18.579Z,57.14
2018-09-30T23:40:48.327Z,57.61
2018-09-30T23:43:18.142Z,56.75
2018-09-30T23:45:47.958Z,57.93
2018-09-30T23:48:17.711Z,57.62
2018-09-30T23:50:47.521Z,57.20
2018-09-30T23:53:17.297Z,57.48
2018-09-30T23:55:47.016Z,56.75
2018-09-30T23:58:16.844Z,56.86
